sensor_id;sensor_type;location;lat;lon;timestamp;pressure;altitude;pressure_sealevel;temperature;humidity
33422;BME280;19763;55.798;37.782;2023-05-12T00:01:56;150006.69;;;10.80;80.86
33422;BME280;19763;55.798;37.782;2023-05-12T00:04:22;150019.53;;;10.85;80.66
33422;BME280;19763;55.798;37.782;2023-05-12T00:06:47;150005.44;;;10.79;81.11
33422;BME280;19763;55.798;37.782;2023-05-12T00:09:13;150005.44;;;10.79;80.34
33422;BME280;19763;55.798;37.782;2023-05-12T00:11:39;150013.13;;;10.82;80.34
33422;BME280;19763;55.798;37.782;2023-05-12T00:14:05;150011.84;;;10.82;80.29
33422;BME280;19763;55.798;37.782;2023-05-12T00:16:31;150020.81;;;10.85;79.95
33422;BME280;19763;55.798;37.782;2023-05-12T00:18:56;150015.69;;;10.83;80.31
33422;BME280;19763;55.798;37.782;2023-05-12T00:21:22;150014.38;;;10.83;80.31
33422;BME280;19763;55.798;37.782;2023-05-12T00:23:47;150006.69;;;10.80;80.71
33422;BME280;19763;55.798;37.782;2023-05-12T00:26:13;150000.28;;;10.77;80.55
33422;BME280;19763;55.798;37.782;2023-05-12T00:28:39;149992.59;;;10.74;80.53
33422;BME280;19763;55.798;37.782;2023-05-12T00:31:04;149983.63;;;10.70;80.36
33422;BME280;19763;55.798;37.782;2023-05-12T00:33:30;149990.06;;;10.73;79.91
33422;BME280;19763;55.798;37.782;2023-05-12T00:35:56;149990.06;;;10.73;80.38
33422;BME280;19763;55.798;37.782;2023-05-12T00:38:24;149900.25;;;10.37;79.94
33422;BME280;19763;55.798;37.782;2023-05-12T00:40:50;149966.94;;;10.64;80.01
33422;BME280;19763;55.798;37.782;2023-05-12T00:43:16;149964.38;;;10.63;80.65
33422;BME280;19763;55.798;37.782;2023-05-12T00:45:42;149961.84;;;10.62;80.74
33422;BME280;19763;55.798;37.782;2023-05-12T00:48:08;149922.03;;;10.46;80.48
33422;BME280;19763;55.798;37.782;2023-05-12T00:50:34;149936.16;;;10.51;81.07
33422;BME280;19763;55.798;37.782;2023-05-12T00:53:00;149933.63;;;10.50;80.86
33422;BME280;19763;55.798;37.782;2023-05-12T00:55:28;149913.09;;;10.42;81.10
33422;BME280;19763;55.798;37.782;2023-05-12T00:57:54;149918.19;;;10.44;80.74
33422;BME280;19763;55.798;37.782;2023-05-12T01:00:20;149919.50;;;10.45;80.13
33422;BME280;19763;55.798;37.782;2023-05-12T01:02:47;149901.56;;;10.38;80.92
33422;BME280;19763;55.798;37.782;2023-05-12T01:05:12;149907.94;;;10.40;80.55
33422;BME280;19763;55.798;37.782;2023-05-12T01:07:39;149905.41;;;10.39;80.80
33422;BME280;19763;55.798;37.782;2023-05-12T01:10:19;149872.00;;;10.26;80.35
33422;BME280;19763;55.798;37.782;2023-05-12T01:12:45;149896.41;;;10.35;81.10
33422;BME280;19763;55.798;37.782;2023-05-12T01:15:11;149893.81;;;10.34;80.62
33422;BME280;19763;55.798;37.782;2023-05-12T01:17:39;149896.41;;;10.35;80.78
33422;BME280;19763;55.798;37.782;2023-05-12T01:20:07;149884.81;;;10.31;80.67
33422;BME280;19763;55.798;37.782;2023-05-12T01:22:36;149878.41;;;10.28;80.70
33422;BME280;19763;55.798;37.782;2023-05-12T01:25:04;149869.47;;;10.25;80.97
33422;BME280;19763;55.798;37.782;2023-05-12T01:27:30;149856.63;;;10.19;80.76
33422;BME280;19763;55.798;37.782;2023-05-12T01:29:58;149827.16;;;10.08;80.42
33422;BME280;19763;55.798;37.782;2023-05-12T01:32:24;149845.09;;;10.15;80.57
33422;BME280;19763;55.798;37.782;2023-05-12T01:34:51;149813.03;;;10.02;81.33
33422;BME280;19763;55.798;37.782;2023-05-12T01:37:16;149833.53;;;10.10;80.60
33422;BME280;19763;55.798;37.782;2023-05-12T01:39:43;149825.84;;;10.07;80.74
33422;BME280;19763;55.798;37.782;2023-05-12T01:42:09;149815.56;;;10.03;81.17
33422;BME280;19763;55.798;37.782;2023-05-12T01:44:35;149813.03;;;10.02;81.28
33422;BME280;19763;55.798;37.782;2023-05-12T01:47:00;149816.88;;;10.04;80.95
33422;BME280;19763;55.798;37.782;2023-05-12T01:49:26;149805.31;;;9.99;81.08
33422;BME280;19763;55.798;37.782;2023-05-12T01:51:52;149815.56;;;10.03;81.51
33422;BME280;19763;55.798;37.782;2023-05-12T01:54:17;149802.78;;;9.98;80.60
33422;BME280;19763;55.798;37.782;2023-05-12T01:56:43;149802.78;;;9.98;80.62
33422;BME280;19763;55.798;37.782;2023-05-12T01:59:09;149800.22;;;9.97;81.62
33422;BME280;19763;55.798;37.782;2023-05-12T02:01:34;149795.09;;;9.95;80.68
33422;BME280;19763;55.798;37.782;2023-05-12T02:04:02;149788.69;;;9.92;81.83
33422;BME280;19763;55.798;37.782;2023-05-12T02:06:29;149782.28;;;9.90;81.68
33422;BME280;19763;55.798;37.782;2023-05-12T02:08:55;149763.06;;;9.82;82.23
33422;BME280;19763;55.798;37.782;2023-05-12T02:11:21;149777.16;;;9.88;81.78
33422;BME280;19763;55.798;37.782;2023-05-12T02:13:47;149786.09;;;9.91;82.24
33422;BME280;19763;55.798;37.782;2023-05-12T02:16:13;149786.09;;;9.91;82.15
33422;BME280;19763;55.798;37.782;2023-05-12T02:18:38;149798.94;;;9.96;81.36
33422;BME280;19763;55.798;37.782;2023-05-12T02:21:24;149809.22;;;10.00;81.70
33422;BME280;19763;55.798;37.782;2023-05-12T02:23:50;149798.94;;;9.96;81.77
33422;BME280;19763;55.798;37.782;2023-05-12T02:26:15;149814.31;;;10.02;82.25
33422;BME280;19763;55.798;37.782;2023-05-12T02:28:42;149852.78;;;10.18;81.87
33422;BME280;19763;55.798;37.782;2023-05-12T02:31:07;149969.53;;;10.65;80.29
33422;BME280;19763;55.798;37.782;2023-05-12T02:33:33;149988.75;;;10.73;79.64
33422;BME280;19763;55.798;37.782;2023-05-12T02:35:58;149995.16;;;10.75;79.24
33422;BME280;19763;55.798;37.782;2023-05-12T02:38:24;150049.03;;;10.97;78.32
33422;BME280;19763;55.798;37.782;2023-05-12T02:40:50;150040.06;;;10.93;78.96
33422;BME280;19763;55.798;37.782;2023-05-12T02:43:15;150025.97;;;10.87;78.92
33422;BME280;19763;55.798;37.782;2023-05-12T02:45:41;150022.13;;;10.86;79.59
33422;BME280;19763;55.798;37.782;2023-05-12T02:48:06;150013.13;;;10.82;79.99
33422;BME280;19763;55.798;37.782;2023-05-12T02:50:32;150047.75;;;10.96;79.38
33422;BME280;19763;55.798;37.782;2023-05-12T02:52:58;150056.72;;;11.00;79.14
33422;BME280;19763;55.798;37.782;2023-05-12T02:55:23;150070.81;;;11.05;79.08
33422;BME280;19763;55.798;37.782;2023-05-12T02:57:49;150076.00;;;11.08;79.52
33422;BME280;19763;55.798;37.782;2023-05-12T03:00:14;150090.09;;;11.13;79.08
33422;BME280;19763;55.798;37.782;2023-05-12T03:02:40;150108.06;;;11.20;79.28
33422;BME280;19763;55.798;37.782;2023-05-12T03:05:07;150131.13;;;11.30;78.95
33422;BME280;19763;55.798;37.782;2023-05-12T03:07:33;150161.94;;;11.42;78.24
33422;BME280;19763;55.798;37.782;2023-05-12T03:09:59;150186.34;;;11.52;78.35
33422;BME280;19763;55.798;37.782;2023-05-12T03:12:25;150218.41;;;11.65;77.75
33422;BME280;19763;55.798;37.782;2023-05-12T03:14:53;150271.06;;;11.86;77.23
33422;BME280;19763;55.798;37.782;2023-05-12T03:17:19;150298.03;;;11.97;77.30
33422;BME280;19763;55.798;37.782;2023-05-12T03:19:46;150340.41;;;12.14;75.93
33422;BME280;19763;55.798;37.782;2023-05-12T03:22:12;150372.50;;;12.26;75.39
33422;BME280;19763;55.798;37.782;2023-05-12T03:24:37;150418.72;;;12.45;75.37
33422;BME280;19763;55.798;37.782;2023-05-12T03:27:03;150454.69;;;12.59;74.27
33422;BME280;19763;55.798;37.782;2023-05-12T03:29:28;150493.22;;;12.75;70.73
33422;BME280;19763;55.798;37.782;2023-05-12T03:31:54;150551.03;;;12.98;73.01
33422;BME280;19763;55.798;37.782;2023-05-12T03:34:20;150587.06;;;13.12;69.03
33422;BME280;19763;55.798;37.782;2023-05-12T03:36:45;150633.31;;;13.31;68.71
33422;BME280;19763;55.798;37.782;2023-05-12T03:39:11;150656.47;;;13.40;66.01
33422;BME280;19763;55.798;37.782;2023-05-12T03:41:37;150734.88;;;13.72;63.80
33422;BME280;19763;55.798;37.782;2023-05-12T03:44:03;150787.59;;;13.93;61.07
33422;BME280;19763;55.798;37.782;2023-05-12T03:46:38;150809.44;;;14.02;60.15
33422;BME280;19763;55.798;37.782;2023-05-12T03:49:04;150867.28;;;14.25;59.91
33422;BME280;19763;55.798;37.782;2023-05-12T03:51:29;150920.03;;;14.46;59.78
33422;BME280;19763;55.798;37.782;2023-05-12T03:53:55;150925.19;;;14.48;57.76
33422;BME280;19763;55.798;37.782;2023-05-12T03:56:21;150934.19;;;14.52;57.21
33422;BME280;19763;55.798;37.782;2023-05-12T03:58:47;150959.94;;;14.62;58.04
33422;BME280;19763;55.798;37.782;2023-05-12T04:01:14;150971.56;;;14.66;58.84
33422;BME280;19763;55.798;37.782;2023-05-12T04:03:39;150968.97;;;14.65;57.75
33422;BME280;19763;55.798;37.782;2023-05-12T04:06:05;150997.28;;;14.77;57.93
33422;BME280;19763;55.798;37.782;2023-05-12T04:08:33;150999.84;;;14.78;56.94
33422;BME280;19763;55.798;37.782;2023-05-12T04:11:00;151003.72;;;14.79;55.82
33422;BME280;19763;55.798;37.782;2023-05-12T04:13:27;151042.28;;;14.95;54.90
33422;BME280;19763;55.798;37.782;2023-05-12T04:15:56;151051.31;;;14.98;53.01
33422;BME280;19763;55.798;37.782;2023-05-12T04:18:22;151060.28;;;15.02;54.11
33422;BME280;19763;55.798;37.782;2023-05-12T04:20:48;151080.88;;;15.10;53.62
33422;BME280;19763;55.798;37.782;2023-05-12T04:23:14;151114.38;;;15.24;54.46
33422;BME280;19763;55.798;37.782;2023-05-12T04:25:40;151118.22;;;15.25;53.59
33422;BME280;19763;55.798;37.782;2023-05-12T04:28:07;151137.50;;;15.33;52.51
33422;BME280;19763;55.798;37.782;2023-05-12T04:30:32;151141.38;;;15.34;53.45
33422;BME280;19763;55.798;37.782;2023-05-12T04:32:58;151153.00;;;15.39;53.63
33422;BME280;19763;55.798;37.782;2023-05-12T04:35:24;151182.56;;;15.51;53.82
33422;BME280;19763;55.798;37.782;2023-05-12T04:37:50;151196.75;;;15.57;53.32
33422;BME280;19763;55.798;37.782;2023-05-12T04:40:15;151216.03;;;15.64;53.78
33422;BME280;19763;55.798;37.782;2023-05-12T04:42:41;151243.06;;;15.75;53.68
33422;BME280;19763;55.798;37.782;2023-05-12T04:45:07;151275.31;;;15.88;52.34
33422;BME280;19763;55.798;37.782;2023-05-12T04:47:33;151283.03;;;15.91;53.07
33422;BME280;19763;55.798;37.782;2023-05-12T04:49:58;151339.69;;;16.14;53.12
33422;BME280;19763;55.798;37.782;2023-05-12T04:52:24;151406.66;;;16.41;52.11
33422;BME280;19763;55.798;37.782;2023-05-12T04:54:50;151505.88;;;16.80;50.99
33422;BME280;19763;55.798;37.782;2023-05-12T04:57:16;151552.28;;;16.99;51.32
33422;BME280;19763;55.798;37.782;2023-05-12T04:59:42;151583.19;;;17.11;50.08
33422;BME280;19763;55.798;37.782;2023-05-12T05:02:08;151618.00;;;17.25;49.79
33422;BME280;19763;55.798;37.782;2023-05-12T05:04:34;151727.56;;;17.69;47.75
33422;BME280;19763;55.798;37.782;2023-05-12T05:07:00;151816.59;;;18.04;47.38
33422;BME280;19763;55.798;37.782;2023-05-12T05:09:25;151859.16;;;18.21;47.05
33422;BME280;19763;55.798;37.782;2023-05-12T05:11:51;151975.22;;;18.68;46.16
33422;BME280;19763;55.798;37.782;2023-05-12T05:14:16;152048.81;;;18.97;46.03
33422;BME280;19763;55.798;37.782;2023-05-12T05:16:43;152074.63;;;19.07;46.23
33422;BME280;19763;55.798;37.782;2023-05-12T05:19:09;152133.94;;;19.31;45.14
33422;BME280;19763;55.798;37.782;2023-05-12T05:21:35;152184.31;;;19.51;43.82
33422;BME280;19763;55.798;37.782;2023-05-12T05:24:00;152155.94;;;19.40;44.46
33422;BME280;19763;55.798;37.782;2023-05-12T05:26:26;151975.22;;;18.68;45.21
33422;BME280;19763;55.798;37.782;2023-05-12T05:28:52;152078.47;;;19.09;45.27
33422;BME280;19763;55.798;37.782;2023-05-12T05:31:20;152095.28;;;19.16;45.08
33422;BME280;19763;55.798;37.782;2023-05-12T05:33:46;152121.06;;;19.26;44.68
33422;BME280;19763;55.798;37.782;2023-05-12T05:36:11;152144.28;;;19.35;45.22
33422;BME280;19763;55.798;37.782;2023-05-12T05:38:37;152104.28;;;19.19;44.07
33422;BME280;19763;55.798;37.782;2023-05-12T05:41:03;152167.53;;;19.44;44.68
33422;BME280;19763;55.798;37.782;2023-05-12T05:43:29;152225.59;;;19.67;44.76
33422;BME280;19763;55.798;37.782;2023-05-12T05:45:55;152118.47;;;19.25;44.34
33422;BME280;19763;55.798;37.782;2023-05-12T05:48:23;152132.66;;;19.30;45.37
33422;BME280;19763;55.798;37.782;2023-05-12T05:50:49;152139.13;;;19.33;43.89
33422;BME280;19763;55.798;37.782;2023-05-12T05:53:15;152126.22;;;19.28;45.18
33422;BME280;19763;55.798;37.782;2023-05-12T05:55:43;152126.22;;;19.28;45.06
33422;BME280;19763;55.798;37.782;2023-05-12T05:58:09;152114.59;;;19.23;45.45
33422;BME280;19763;55.798;37.782;2023-05-12T06:00:34;152100.41;;;19.18;46.19
33422;BME280;19763;55.798;37.782;2023-05-12T06:03:00;152103.00;;;19.19;43.99
33422;BME280;19763;55.798;37.782;2023-05-12T06:05:26;152112.00;;;19.22;44.50
33422;BME280;19763;55.798;37.782;2023-05-12T06:07:51;152124.94;;;19.27;45.60
33422;BME280;19763;55.798;37.782;2023-05-12T06:10:17;152037.16;;;18.92;44.32
33422;BME280;19763;55.798;37.782;2023-05-12T06:12:43;152078.47;;;19.09;44.35
33422;BME280;19763;55.798;37.782;2023-05-12T06:15:09;152037.16;;;18.92;44.37
33422;BME280;19763;55.798;37.782;2023-05-12T06:17:35;152029.44;;;18.89;43.26
33422;BME280;19763;55.798;37.782;2023-05-12T06:20:01;152043.63;;;18.95;43.81
33422;BME280;19763;55.798;37.782;2023-05-12T06:22:27;152026.84;;;18.88;44.08
33422;BME280;19763;55.798;37.782;2023-05-12T06:24:52;152078.47;;;19.09;43.72
33422;BME280;19763;55.798;37.782;2023-05-12T06:27:18;152106.88;;;19.20;43.84
33422;BME280;19763;55.798;37.782;2023-05-12T06:29:44;152077.22;;;19.08;43.58
33422;BME280;19763;55.798;37.782;2023-05-12T06:32:09;152074.63;;;19.07;42.72
33422;BME280;19763;55.798;37.782;2023-05-12T06:34:35;152144.28;;;19.35;43.00
33422;BME280;19763;55.798;37.782;2023-05-12T06:37:01;152189.47;;;19.53;42.46
33422;BME280;19763;55.798;37.782;2023-05-12T06:39:26;152153.34;;;19.39;41.30
33422;BME280;19763;55.798;37.782;2023-05-12T06:41:52;152104.28;;;19.19;35.41
33422;BME280;19763;55.798;37.782;2023-05-12T06:44:17;152158.47;;;19.41;37.14
33422;BME280;19763;55.798;37.782;2023-05-12T06:46:43;152170.13;;;19.45;37.15
33422;BME280;19763;55.798;37.782;2023-05-12T06:49:09;152199.81;;;19.57;36.56
33422;BME280;19763;55.798;37.782;2023-05-12T06:51:34;152203.66;;;19.59;34.17
33422;BME280;19763;55.798;37.782;2023-05-12T06:54:01;152190.75;;;19.54;32.05
33422;BME280;19763;55.798;37.782;2023-05-12T06:56:26;152254.06;;;19.79;34.19
33422;BME280;19763;55.798;37.782;2023-05-12T06:58:54;152267.00;;;19.84;34.45
33422;BME280;19763;55.798;37.782;2023-05-12T07:01:29;152295.41;;;19.95;34.02
33422;BME280;19763;55.798;37.782;2023-05-12T07:03:55;152317.34;;;20.04;34.22
33422;BME280;19763;55.798;37.782;2023-05-12T07:06:21;152330.22;;;20.09;33.91
33422;BME280;19763;55.798;37.782;2023-05-12T07:08:47;152332.81;;;20.10;32.37
33422;BME280;19763;55.798;37.782;2023-05-12T07:11:13;152372.84;;;20.26;33.70
33422;BME280;19763;55.798;37.782;2023-05-12T07:13:48;152376.72;;;20.28;32.10
33422;BME280;19763;55.798;37.782;2023-05-12T07:16:15;152356.09;;;20.20;30.93
33422;BME280;19763;55.798;37.782;2023-05-12T07:18:42;152415.47;;;20.43;32.23
33422;BME280;19763;55.798;37.782;2023-05-12T07:21:08;152436.13;;;20.51;31.79
33422;BME280;19763;55.798;37.782;2023-05-12T07:23:34;152420.66;;;20.45;30.28
33422;BME280;19763;55.798;37.782;2023-05-12T07:26:01;152397.38;;;20.36;31.06
33422;BME280;19763;55.798;37.782;2023-05-12T07:28:31;152385.78;;;20.31;31.60
33422;BME280;19763;55.798;37.782;2023-05-12T07:31:01;152419.34;;;20.45;32.70
33422;BME280;19763;55.798;37.782;2023-05-12T07:33:27;152385.78;;;20.31;29.60
33422;BME280;19763;55.798;37.782;2023-05-12T07:35:52;152433.53;;;20.50;30.00
33422;BME280;19763;55.798;37.782;2023-05-12T07:38:18;152424.53;;;20.47;31.51
33422;BME280;19763;55.798;37.782;2023-05-12T07:40:44;152409.00;;;20.41;31.30
33422;BME280;19763;55.798;37.782;2023-05-12T07:43:10;152447.75;;;20.56;30.74
33422;BME280;19763;55.798;37.782;2023-05-12T07:45:35;152459.41;;;20.61;31.04
33422;BME280;19763;55.798;37.782;2023-05-12T07:48:01;152410.31;;;20.41;30.98
33422;BME280;19763;55.798;37.782;2023-05-12T07:50:28;152467.16;;;20.64;30.96
33422;BME280;19763;55.798;37.782;2023-05-12T07:52:53;152496.91;;;20.76;32.30
33422;BME280;19763;55.798;37.782;2023-05-12T07:55:20;152495.63;;;20.75;30.13
33422;BME280;19763;55.798;37.782;2023-05-12T07:57:48;152512.38;;;20.82;30.88
33422;BME280;19763;55.798;37.782;2023-05-12T08:00:14;152512.38;;;20.82;31.27
33422;BME280;19763;55.798;37.782;2023-05-12T08:02:41;152534.34;;;20.91;31.48
33422;BME280;19763;55.798;37.782;2023-05-12T08:05:08;152564.09;;;21.02;32.26
33422;BME280;19763;55.798;37.782;2023-05-12T08:07:36;152573.09;;;21.06;31.67
33422;BME280;19763;55.798;37.782;2023-05-12T08:10:03;152584.78;;;21.11;31.70
33422;BME280;19763;55.798;37.782;2023-05-12T08:12:29;152553.75;;;20.98;30.35
33422;BME280;19763;55.798;37.782;2023-05-12T08:14:55;152558.91;;;21.00;30.04
33422;BME280;19763;55.798;37.782;2023-05-12T08:17:21;152574.44;;;21.07;30.89
33422;BME280;19763;55.798;37.782;2023-05-12T08:19:46;152573.09;;;21.06;29.10
33422;BME280;19763;55.798;37.782;2023-05-12T08:22:12;152593.78;;;21.14;29.88
33422;BME280;19763;55.798;37.782;2023-05-12T08:24:38;152600.28;;;21.17;29.19
33422;BME280;19763;55.798;37.782;2023-05-12T08:27:03;152547.28;;;20.96;28.79
33422;BME280;19763;55.798;37.782;2023-05-12T08:29:29;152580.91;;;21.09;28.94
33422;BME280;19763;55.798;37.782;2023-05-12T08:31:56;152611.88;;;21.21;29.47
33422;BME280;19763;55.798;37.782;2023-05-12T08:34:23;152651.94;;;21.37;29.30
33422;BME280;19763;55.798;37.782;2023-05-12T08:36:51;152614.47;;;21.23;29.27
33422;BME280;19763;55.798;37.782;2023-05-12T08:39:17;152626.09;;;21.27;27.33
33422;BME280;19763;55.798;37.782;2023-05-12T08:44:38;152651.94;;;21.37;26.81
33422;BME280;19763;55.798;37.782;2023-05-12T08:47:04;152711.47;;;21.61;29.25
33422;BME280;19763;55.798;37.782;2023-05-12T08:49:31;152773.50;;;21.86;27.94
33422;BME280;19763;55.798;37.782;2023-05-12T08:52:02;152818.75;;;22.04;29.41
33422;BME280;19763;55.798;37.782;2023-05-12T08:54:29;152848.47;;;22.16;29.25
33422;BME280;19763;55.798;37.782;2023-05-12T08:56:55;152822.63;;;22.05;28.95
33422;BME280;19763;55.798;37.782;2023-05-12T08:59:22;152767.06;;;21.83;28.52
33422;BME280;19763;55.798;37.782;2023-05-12T09:01:49;152764.47;;;21.82;27.92
33422;BME280;19763;55.798;37.782;2023-05-12T09:04:15;152754.13;;;21.78;29.10
33422;BME280;19763;55.798;37.782;2023-05-12T09:06:44;152688.16;;;21.52;26.76
33422;BME280;19763;55.798;37.782;2023-05-12T09:09:12;152681.69;;;21.49;27.54
33422;BME280;19763;55.798;37.782;2023-05-12T09:11:40;152654.53;;;21.38;27.02
33422;BME280;19763;55.798;37.782;2023-05-12T09:14:16;152663.59;;;21.42;27.12
33422;BME280;19763;55.798;37.782;2023-05-12T09:16:45;152715.34;;;21.63;26.75
33422;BME280;19763;55.798;37.782;2023-05-12T09:19:18;152694.63;;;21.54;27.12
33422;BME280;19763;55.798;37.782;2023-05-12T09:21:44;152672.63;;;21.46;26.61
33422;BME280;19763;55.798;37.782;2023-05-12T09:24:10;152664.88;;;21.43;27.08
33422;BME280;19763;55.798;37.782;2023-05-12T09:26:50;152580.91;;;21.09;26.76
33422;BME280;19763;55.798;37.782;2023-05-12T09:29:17;152562.78;;;21.02;27.00
33422;BME280;19763;55.798;37.782;2023-05-12T09:31:53;152611.88;;;21.21;27.59
33422;BME280;19763;55.798;37.782;2023-05-12T09:34:25;152611.88;;;21.21;29.44
33422;BME280;19763;55.798;37.782;2023-05-12T09:36:59;152637.72;;;21.32;28.13
33422;BME280;19763;55.798;37.782;2023-05-12T09:39:25;152609.28;;;21.20;27.61
33422;BME280;19763;55.798;37.782;2023-05-12T09:41:51;152575.72;;;21.07;28.06
33422;BME280;19763;55.798;37.782;2023-05-12T09:44:18;152626.09;;;21.27;29.02
33422;BME280;19763;55.798;37.782;2023-05-12T09:46:44;152610.63;;;21.21;28.46
33422;BME280;19763;55.798;37.782;2023-05-12T09:49:10;152588.66;;;21.12;27.58
33422;BME280;19763;55.798;37.782;2023-05-12T09:51:36;152579.59;;;21.09;28.99
33422;BME280;19763;55.798;37.782;2023-05-12T09:54:02;152605.41;;;21.19;29.25
33422;BME280;19763;55.798;37.782;2023-05-12T09:56:29;152631.28;;;21.29;29.58
33422;BME280;19763;55.798;37.782;2023-05-12T09:58:57;152627.44;;;21.28;29.35
33422;BME280;19763;55.798;37.782;2023-05-12T10:01:23;152619.63;;;21.25;28.69
33422;BME280;19763;55.798;37.782;2023-05-12T10:03:57;152662.28;;;21.42;28.41
33422;BME280;19763;55.798;37.782;2023-05-12T10:06:32;152671.34;;;21.45;27.88
33422;BME280;19763;55.798;37.782;2023-05-12T10:11:30;152701.13;;;21.57;27.96
33422;BME280;19763;55.798;37.782;2023-05-12T10:13:56;152694.63;;;21.54;27.60
33422;BME280;19763;55.798;37.782;2023-05-12T10:16:23;152703.72;;;21.58;27.73
33422;BME280;19763;55.798;37.782;2023-05-12T10:18:51;152604.13;;;21.18;26.81
33422;BME280;19763;55.798;37.782;2023-05-12T10:21:17;152693.38;;;21.54;27.91
33422;BME280;19763;55.798;37.782;2023-05-12T10:23:43;152715.34;;;21.63;27.74
33422;BME280;19763;55.798;37.782;2023-05-12T10:26:10;152708.88;;;21.60;27.37
33422;BME280;19763;55.798;37.782;2023-05-12T10:28:36;152596.41;;;21.15;27.38
33422;BME280;19763;55.798;37.782;2023-05-12T10:31:04;152608.00;;;21.20;28.28
33422;BME280;19763;55.798;37.782;2023-05-12T10:33:30;152659.72;;;21.41;30.22
33422;BME280;19763;55.798;37.782;2023-05-12T10:35:56;152666.16;;;21.43;28.98
33422;BME280;19763;55.798;37.782;2023-05-12T10:38:22;152646.78;;;21.35;29.40
33422;BME280;19763;55.798;37.782;2023-05-12T10:43:24;152637.72;;;21.32;28.88
33422;BME280;19763;55.798;37.782;2023-05-12T10:46:12;152688.16;;;21.52;30.23
33422;BME280;19763;55.798;37.782;2023-05-12T10:51:19;152706.31;;;21.59;28.03
33422;BME280;19763;55.798;37.782;2023-05-12T10:53:50;152707.59;;;21.60;29.49
33422;BME280;19763;55.798;37.782;2023-05-12T10:56:24;152645.50;;;21.35;29.35
33422;BME280;19763;55.798;37.782;2023-05-12T10:59:14;152676.50;;;21.47;27.88
33422;BME280;19763;55.798;37.782;2023-05-12T11:02:11;152699.84;;;21.57;29.38
33422;BME280;19763;55.798;37.782;2023-05-12T11:04:54;152672.63;;;21.46;28.66
33422;BME280;19763;55.798;37.782;2023-05-12T11:07:22;152715.34;;;21.63;30.30
33422;BME280;19763;55.798;37.782;2023-05-12T11:09:51;152704.97;;;21.59;28.63
33422;BME280;19763;55.798;37.782;2023-05-12T11:12:17;152670.03;;;21.45;27.18
33422;BME280;19763;55.798;37.782;2023-05-12T11:14:44;152673.94;;;21.46;27.38
33422;BME280;19763;55.798;37.782;2023-05-12T11:17:10;152682.97;;;21.50;27.02
33422;BME280;19763;55.798;37.782;2023-05-12T11:19:37;152717.94;;;21.64;27.89
33422;BME280;19763;55.798;37.782;2023-05-12T11:22:11;152672.63;;;21.46;26.45
33422;BME280;19763;55.798;37.782;2023-05-12T11:24:39;152658.41;;;21.40;26.29
33422;BME280;19763;55.798;37.782;2023-05-12T11:27:10;152707.59;;;21.60;27.77
33422;BME280;19763;55.798;37.782;2023-05-12T11:29:36;152738.63;;;21.72;27.65
33422;BME280;19763;55.798;37.782;2023-05-12T11:32:04;152717.94;;;21.64;26.94
33422;BME280;19763;55.798;37.782;2023-05-12T11:34:29;152701.13;;;21.57;27.58
33422;BME280;19763;55.798;37.782;2023-05-12T11:36:55;152746.38;;;21.75;26.90
33422;BME280;19763;55.798;37.782;2023-05-12T11:39:24;152708.88;;;21.60;28.82
33422;BME280;19763;55.798;37.782;2023-05-12T11:41:51;152692.09;;;21.53;28.16
33422;BME280;19763;55.798;37.782;2023-05-12T11:44:18;152675.22;;;21.47;27.04
33422;BME280;19763;55.798;37.782;2023-05-12T11:46:54;152712.72;;;21.62;27.71
33422;BME280;19763;55.798;37.782;2023-05-12T11:49:20;152706.31;;;21.59;27.20
33422;BME280;19763;55.798;37.782;2023-05-12T11:51:46;152734.69;;;21.70;28.33
33422;BME280;19763;55.798;37.782;2023-05-12T11:54:11;152684.25;;;21.50;27.49
33422;BME280;19763;55.798;37.782;2023-05-12T11:56:37;152688.16;;;21.52;27.39
33422;BME280;19763;55.798;37.782;2023-05-12T11:59:03;152682.97;;;21.50;28.11
33422;BME280;19763;55.798;37.782;2023-05-12T12:01:28;152637.72;;;21.32;30.30
33422;BME280;19763;55.798;37.782;2023-05-12T12:03:54;152645.50;;;21.35;28.21
33422;BME280;19763;55.798;37.782;2023-05-12T12:06:21;152593.78;;;21.14;31.35
33422;BME280;19763;55.798;37.782;2023-05-12T12:08:57;152586.06;;;21.11;28.62
33422;BME280;19763;55.798;37.782;2023-05-12T12:11:26;152648.06;;;21.36;29.16
33422;BME280;19763;55.798;37.782;2023-05-12T12:13:54;152671.34;;;21.45;30.95
33422;BME280;19763;55.798;37.782;2023-05-12T12:16:26;152633.84;;;21.30;30.54
33422;BME280;19763;55.798;37.782;2023-05-12T12:18:53;152681.69;;;21.49;28.83
33422;BME280;19763;55.798;37.782;2023-05-12T12:21:19;152688.16;;;21.52;30.90
33422;BME280;19763;55.798;37.782;2023-05-12T12:23:46;152710.19;;;21.61;30.04
33422;BME280;19763;55.798;37.782;2023-05-12T12:26:12;152697.25;;;21.55;28.99
33422;BME280;19763;55.798;37.782;2023-05-12T12:28:47;152721.81;;;21.65;28.81
33422;BME280;19763;55.798;37.782;2023-05-12T12:31:13;152720.53;;;21.65;27.80
33422;BME280;19763;55.798;37.782;2023-05-12T12:33:39;152677.81;;;21.48;27.77
33422;BME280;19763;55.798;37.782;2023-05-12T12:36:05;152725.69;;;21.67;29.19
33422;BME280;19763;55.798;37.782;2023-05-12T12:38:31;152715.34;;;21.63;27.18
33422;BME280;19763;55.798;37.782;2023-05-12T12:40:57;152689.50;;;21.52;27.95
33422;BME280;19763;55.798;37.782;2023-05-12T12:43:23;152688.16;;;21.52;28.50
33422;BME280;19763;55.798;37.782;2023-05-12T12:45:48;152675.22;;;21.47;28.96
33422;BME280;19763;55.798;37.782;2023-05-12T12:48:14;152719.22;;;21.64;28.36
33422;BME280;19763;55.798;37.782;2023-05-12T12:50:40;152716.59;;;21.63;28.11